Agrinion, Greece
Current Conditions -  °F | °C
As of 11:50 PM on Friday 31 Oct 2014 (Local Time) from LGRX Reporting Station
Clear Clear  
Wind Chill: 55°   Ceiling: Unl
Heat Index: 55°   Visibility: 6mi
Dew Point: 48°   Wind: 9mph
Humidity: 77%   Direction: 40°NE
Pressure: 30.06"   Gusts: NA
Location:  38.62°N, 21.41°E
Report Text: LGRX 312050Z 04008KT CAVOK 13/09 Q1018
Loading
Personal Weather Stations






























Interactive Weather Map
Tropical Storm Tracking
New forecast layout! Learn more

10-Day Weather Forecast

Advertisements
Track Severe Weather on mobile